createdAt,value
2018-05-23T00:01:29.751Z,6.50
2018-05-23T00:03:57.998Z,6.40
2018-05-23T00:06:25.499Z,7.33
2018-05-23T00:08:52.987Z,6.17
2018-05-23T00:11:20.480Z,6.43
2018-05-23T00:13:47.965Z,6.37
2018-05-23T00:16:16.234Z,7.23
2018-05-23T00:18:44.514Z,5.67
2018-05-23T00:21:12.760Z,6.17
2018-05-23T00:23:40.260Z,5.77
2018-05-23T00:26:08.498Z,5.53
2018-05-23T00:28:36.010Z,5.63
2018-05-23T00:31:03.485Z,6.00
2018-05-23T00:33:30.983Z,6.10
2018-05-23T00:35:58.464Z,6.23
2018-05-23T00:38:26.723Z,6.77
2018-05-23T00:40:54.250Z,6.77
2018-05-23T00:43:21.747Z,7.20
2018-05-23T00:45:49.220Z,6.83
2018-05-23T00:48:17.487Z,7.50
2018-05-23T00:50:45.722Z,7.30
2018-05-23T00:53:13.202Z,7.40
2018-05-23T00:55:40.701Z,7.73
2018-05-23T00:58:08.190Z,6.93
2018-05-23T01:00:35.688Z,8.67
2018-05-23T01:03:03.163Z,7.30
2018-05-23T01:05:31.434Z,7.47
2018-05-23T01:07:58.928Z,7.70
2018-05-23T01:10:26.436Z,9.10
2018-05-23T01:12:53.913Z,8.13
2018-05-23T01:15:22.187Z,7.97
2018-05-23T01:17:50.435Z,8.57
2018-05-23T01:20:17.940Z,7.77
2018-05-23T01:22:46.188Z,8.37
2018-05-23T01:25:13.692Z,8.17
2018-05-23T01:27:41.167Z,6.63
2018-05-23T01:30:08.679Z,7.07
2018-05-23T01:32:36.995Z,6.57
2018-05-23T01:35:04.477Z,7.80
2018-05-23T01:37:31.971Z,7.10
2018-05-23T01:40:00.227Z,6.77
2018-05-23T01:42:27.730Z,7.77
2018-05-23T01:44:55.280Z,7.33
2018-05-23T01:47:23.538Z,6.67
2018-05-23T01:49:51.023Z,8.77
2018-05-23T01:52:19.283Z,8.20
2018-05-23T01:54:47.521Z,9.90
2018-05-23T01:57:15.020Z,9.93
2018-05-23T01:59:43.274Z,12.10
2018-05-23T02:02:11.535Z,9.53
2018-05-23T02:04:39.030Z,10.50
2018-05-23T02:07:07.290Z,9.33
2018-05-23T02:09:34.770Z,10.80
2018-05-23T02:12:03.034Z,10.60
2018-05-23T02:14:30.520Z,10.90
2018-05-23T02:16:58.022Z,10.50
2018-05-23T02:19:25.621Z,11.30
2018-05-23T02:21:53.091Z,10.07
2018-05-23T02:24:21.365Z,12.57
2018-05-23T02:26:49.608Z,11.20
2018-05-23T02:29:17.115Z,13.03
2018-05-23T02:31:44.608Z,12.93
2018-05-23T02:34:12.112Z,13.33
2018-05-23T02:36:40.383Z,13.30
2018-05-23T02:39:07.918Z,18.30
2018-05-23T02:41:35.399Z,13.60
2018-05-23T02:44:03.652Z,14.97
2018-05-23T02:46:31.164Z,15.27
2018-05-23T02:48:58.657Z,11.87
2018-05-23T02:51:26.175Z,14.80
2018-05-23T02:53:54.423Z,19.10
2018-05-23T02:56:21.925Z,14.37
2018-05-23T02:58:49.428Z,12.30
2018-05-23T03:01:16.935Z,13.60
2018-05-23T03:03:44.422Z,12.27
2018-05-23T03:06:11.927Z,12.83
2018-05-23T03:08:39.399Z,10.10
2018-05-23T03:11:06.913Z,9.93
2018-05-23T03:13:34.391Z,11.87
2018-05-23T03:16:01.882Z,13.00
2018-05-23T03:18:29.375Z,12.33
2018-05-23T03:20:56.852Z,11.40
2018-05-23T03:23:24.355Z,12.97
2018-05-23T03:25:52.732Z,14.17
2018-05-23T03:28:21.816Z,12.23
2018-05-23T03:30:49.309Z,12.67
2018-05-23T03:33:16.825Z,13.17
2018-05-23T03:35:44.299Z,11.50
2018-05-23T03:38:12.571Z,18.97
2018-05-23T03:40:40.844Z,12.90
2018-05-23T03:43:08.361Z,12.83
2018-05-23T03:45:35.843Z,12.20
2018-05-23T03:48:03.351Z,14.63
2018-05-23T03:50:30.884Z,15.53
2018-05-23T03:52:59.127Z,14.40
2018-05-23T03:55:26.646Z,11.13
2018-05-23T03:57:54.136Z,12.47
2018-05-23T04:00:33.499Z,14.07
2018-05-23T04:03:12.915Z,14.60
2018-05-23T04:06:06.235Z,12.27
2018-05-23T04:08:34.575Z,11.90
2018-05-23T04:11:02.067Z,12.87
2018-05-23T04:13:30.344Z,16.10
2018-05-23T04:15:58.646Z,13.03
2018-05-23T04:18:26.168Z,12.93
2018-05-23T04:20:53.653Z,12.80
2018-05-23T04:23:21.176Z,12.03
2018-05-23T04:25:48.658Z,13.20
2018-05-23T04:28:16.919Z,11.93
2018-05-23T04:30:44.424Z,12.13
2018-05-23T04:33:11.928Z,10.97
2018-05-23T04:35:39.399Z,15.17
2018-05-23T04:38:07.643Z,12.33
2018-05-23T04:40:35.148Z,12.47
2018-05-23T04:43:03.394Z,12.23
2018-05-23T04:45:30.924Z,10.57
2018-05-23T04:47:58.425Z,11.43
2018-05-23T04:50:26.696Z,10.60
2018-05-23T04:52:54.171Z,10.70
2018-05-23T04:55:22.439Z,11.93
2018-05-23T04:57:50.889Z,11.90
2018-05-23T05:00:18.438Z,12.60
2018-05-23T05:02:45.924Z,12.07
2018-05-23T05:05:13.421Z,9.53
2018-05-23T05:07:40.907Z,10.97
2018-05-23T05:10:08.423Z,10.53
2018-05-23T05:12:35.884Z,10.57
2018-05-23T05:15:04.128Z,12.50
2018-05-23T05:17:31.627Z,10.87
2018-05-23T05:19:59.871Z,11.40
2018-05-23T05:22:28.139Z,11.90
2018-05-23T05:24:55.811Z,11.33
2018-05-23T05:27:24.096Z,12.37
2018-05-23T05:29:51.567Z,10.90
2018-05-23T05:32:19.975Z,13.43
2018-05-23T05:34:47.484Z,14.47
2018-05-23T05:37:14.999Z,13.50
2018-05-23T05:39:42.511Z,12.23
2018-05-23T05:42:09.999Z,14.47
2018-05-23T05:44:37.526Z,12.70
2018-05-23T05:47:05.064Z,12.77
2018-05-23T05:49:32.541Z,14.90
2018-05-23T05:52:00.062Z,12.50
2018-05-23T05:54:27.546Z,12.33
2018-05-23T05:56:55.028Z,15.13
2018-05-23T05:59:24.031Z,11.20
2018-05-23T06:01:52.308Z,13.77
2018-05-23T06:04:20.556Z,12.97
2018-05-23T06:06:48.064Z,12.30
2018-05-23T06:09:15.535Z,11.43
2018-05-23T06:11:43.042Z,13.33
2018-05-23T06:14:10.522Z,10.13
2018-05-23T06:16:38.798Z,11.50
2018-05-23T06:19:07.054Z,16.70
2018-05-23T06:21:34.564Z,10.43
2018-05-23T06:24:02.075Z,10.77
2018-05-23T06:26:29.571Z,10.87
2018-05-23T06:28:57.053Z,10.63
2018-05-23T06:31:24.575Z,12.57
2018-05-23T06:33:52.827Z,11.23
2018-05-23T06:36:20.331Z,11.03
2018-05-23T06:38:47.852Z,13.10
2018-05-23T06:41:15.329Z,11.03
2018-05-23T06:43:43.720Z,12.70
2018-05-23T06:46:11.885Z,12.07
2018-05-23T06:48:40.159Z,13.40
2018-05-23T06:51:08.420Z,14.57
2018-05-23T06:53:36.719Z,11.27
2018-05-23T06:56:05.097Z,11.43
2018-05-23T06:58:32.499Z,12.10
2018-05-23T07:01:00.008Z,10.13
2018-05-23T07:03:28.246Z,9.27
2018-05-23T07:05:55.787Z,9.47
2018-05-23T07:08:23.241Z,10.10
2018-05-23T07:10:50.739Z,9.90
2018-05-23T07:13:18.228Z,9.60
2018-05-23T07:15:45.729Z,9.83
2018-05-23T07:18:13.227Z,10.57
2018-05-23T07:20:41.495Z,8.93
2018-05-23T07:23:08.979Z,8.70
2018-05-23T07:25:37.239Z,8.87
2018-05-23T07:28:05.489Z,10.27
2018-05-23T07:30:32.996Z,7.30
2018-05-23T07:33:00.489Z,7.77
2018-05-23T07:35:28.001Z,8.07
2018-05-23T07:37:55.524Z,7.30
2018-05-23T07:40:23.018Z,9.50
2018-05-23T07:42:51.283Z,6.83
2018-05-23T07:45:18.762Z,5.77
2018-05-23T07:47:46.276Z,5.50
2018-05-23T07:50:13.772Z,7.67
2018-05-23T07:52:42.032Z,6.53
2018-05-23T07:55:09.512Z,8.27
2018-05-23T07:57:37.774Z,6.27
2018-05-23T08:00:05.253Z,6.50
2018-05-23T08:02:33.525Z,5.90
2018-05-23T08:05:01.787Z,6.53
2018-05-23T08:07:29.261Z,7.00
2018-05-23T08:09:57.522Z,6.50
2018-05-23T08:12:25.009Z,6.47
2018-05-23T08:14:52.508Z,5.87
2018-05-23T08:17:20.013Z,11.07
2018-05-23T08:19:48.264Z,8.47
2018-05-23T08:22:15.778Z,7.03
2018-05-23T08:24:43.279Z,8.03
2018-05-23T08:27:10.784Z,7.07
2018-05-23T08:29:38.281Z,7.57
2018-05-23T08:32:05.799Z,7.20
2018-05-23T08:34:33.303Z,7.37
2018-05-23T08:37:00.781Z,7.33
2018-05-23T08:39:28.297Z,7.10
2018-05-23T08:41:55.772Z,7.23
2018-05-23T08:44:23.292Z,7.40
2018-05-23T08:46:50.768Z,8.03
2018-05-23T08:49:18.245Z,7.27
2018-05-23T08:51:45.758Z,7.97
2018-05-23T08:54:13.999Z,8.57
2018-05-23T08:56:41.494Z,7.20
2018-05-23T08:59:09.758Z,8.50
2018-05-23T09:01:38.024Z,8.47
2018-05-23T09:04:05.495Z,9.43
2018-05-23T09:06:33.764Z,9.20
2018-05-23T09:09:02.018Z,8.57
2018-05-23T09:11:29.518Z,7.97
2018-05-23T09:13:57.754Z,9.07
2018-05-23T09:16:25.254Z,9.00
2018-05-23T09:18:53.655Z,8.73
2018-05-23T09:21:21.184Z,7.90
2018-05-23T09:23:49.451Z,10.30
2018-05-23T09:26:16.936Z,9.50
2018-05-23T09:28:44.434Z,9.33
2018-05-23T09:31:11.907Z,8.07
2018-05-23T09:33:39.410Z,8.60
2018-05-23T09:36:06.991Z,8.80
2018-05-23T09:38:34.502Z,72.03
2018-05-23T09:41:01.974Z,9.47
2018-05-23T09:43:30.244Z,8.40
2018-05-23T09:45:58.486Z,9.17
2018-05-23T09:48:25.985Z,9.90
2018-05-23T09:50:54.228Z,12.23
2018-05-23T09:53:21.738Z,10.50
2018-05-23T09:55:49.240Z,8.80
2018-05-23T09:58:16.734Z,12.50
2018-05-23T10:00:44.992Z,9.13
2018-05-23T10:03:12.492Z,11.47
2018-05-23T10:05:39.966Z,10.63
2018-05-23T10:08:07.488Z,8.60
2018-05-23T10:10:35.750Z,10.40
2018-05-23T10:13:03.248Z,10.50
2018-05-23T10:15:30.752Z,9.90
2018-05-23T10:17:58.264Z,9.47
2018-05-23T10:20:25.742Z,10.83
2018-05-23T10:22:53.224Z,11.67
2018-05-23T10:25:20.736Z,11.87
2018-05-23T10:27:48.221Z,11.03
2018-05-23T10:30:15.736Z,10.30
2018-05-23T10:32:43.203Z,13.10
2018-05-23T10:35:11.565Z,11.37
2018-05-23T10:37:39.035Z,14.33
2018-05-23T10:40:07.312Z,11.20
2018-05-23T10:42:35.582Z,10.87
2018-05-23T10:45:03.081Z,12.47
2018-05-23T10:47:30.601Z,14.07
2018-05-23T10:49:58.096Z,11.90
2018-05-23T10:52:25.610Z,10.77
2018-05-23T10:54:53.119Z,11.53
2018-05-23T10:57:20.623Z,11.23
2018-05-23T10:59:48.107Z,11.40
2018-05-23T11:02:16.378Z,12.17
2018-05-23T11:04:43.855Z,12.27
2018-05-23T11:07:11.367Z,10.87
2018-05-23T11:09:38.843Z,10.67
2018-05-23T11:12:06.358Z,10.30
2018-05-23T11:14:33.863Z,11.00
2018-05-23T11:17:01.338Z,9.63
2018-05-23T11:19:28.836Z,8.90
2018-05-23T11:21:56.298Z,9.37
2018-05-23T11:24:23.798Z,10.00
2018-05-23T11:26:53.779Z,11.03
2018-05-23T11:29:21.285Z,8.93
2018-05-23T11:31:49.514Z,8.07
2018-05-23T11:34:17.019Z,8.47
2018-05-23T11:36:45.285Z,7.33
2018-05-23T11:39:12.829Z,7.50
2018-05-23T11:41:40.306Z,5.30
2018-05-23T11:44:08.720Z,6.30
2018-05-23T11:46:36.250Z,6.83
2018-05-23T11:49:03.992Z,5.57
2018-05-23T11:51:31.468Z,6.60
2018-05-23T11:53:58.966Z,8.00
2018-05-23T11:56:26.462Z,7.60
2018-05-23T11:58:53.959Z,6.50
2018-05-23T12:01:22.264Z,6.70
2018-05-23T12:03:49.758Z,6.37
2018-05-23T12:06:17.286Z,6.67
2018-05-23T12:08:44.763Z,4.30
2018-05-23T12:11:12.276Z,6.60
2018-05-23T12:13:40.520Z,7.30
2018-05-23T12:16:08.011Z,8.03
2018-05-23T12:18:36.254Z,6.80
2018-05-23T12:21:03.775Z,6.97
2018-05-23T12:23:31.247Z,6.90
2018-05-23T12:25:58.731Z,7.03
2018-05-23T12:28:26.223Z,6.10
2018-05-23T12:30:54.488Z,8.83
2018-05-23T12:33:22.761Z,7.73
2018-05-23T12:35:50.295Z,6.67
2018-05-23T12:38:17.775Z,5.33
2018-05-23T12:40:45.256Z,6.70
2018-05-23T12:43:12.759Z,6.40
2018-05-23T12:45:40.231Z,6.10
2018-05-23T12:48:07.736Z,5.80
2018-05-23T12:50:35.211Z,5.50
2018-05-23T12:53:02.720Z,5.40
2018-05-23T12:55:30.241Z,5.20
2018-05-23T12:57:57.741Z,6.93
2018-05-23T13:00:25.209Z,6.40
2018-05-23T13:02:53.493Z,7.43
2018-05-23T13:05:21.736Z,5.43
2018-05-23T13:07:49.225Z,4.90
2018-05-23T13:10:17.489Z,6.20
2018-05-23T13:12:45.142Z,5.77
2018-05-23T13:15:12.609Z,4.60
2018-05-23T13:17:40.085Z,4.50
2018-05-23T13:20:08.477Z,4.40
2018-05-23T13:22:35.975Z,4.70
2018-05-23T13:25:03.474Z,5.10
2018-05-23T13:27:31.728Z,4.53
2018-05-23T13:29:59.227Z,4.60
2018-05-23T13:32:26.709Z,6.83
2018-05-23T13:34:54.199Z,6.03
2018-05-23T13:37:21.694Z,5.57
2018-05-23T13:39:49.952Z,4.83
2018-05-23T13:42:17.425Z,3.70
2018-05-23T13:44:45.694Z,4.60
2018-05-23T13:47:13.162Z,6.10
2018-05-23T13:49:41.433Z,5.43
2018-05-23T13:52:09.674Z,4.50
2018-05-23T13:54:37.154Z,3.83
2018-05-23T13:57:04.643Z,4.00
2018-05-23T13:59:32.879Z,5.73
2018-05-23T14:02:00.372Z,5.63
2018-05-23T14:04:28.619Z,5.67
2018-05-23T14:06:56.107Z,4.20
2018-05-23T14:09:24.367Z,4.10
2018-05-23T14:11:51.866Z,3.97
2018-05-23T14:14:19.340Z,4.00
2018-05-23T14:16:46.850Z,11.37
2018-05-23T14:19:15.123Z,4.90
2018-05-23T14:21:42.596Z,3.73
2018-05-23T14:24:10.952Z,4.17
2018-05-23T14:26:38.464Z,3.93
2018-05-23T14:29:05.936Z,4.50
2018-05-23T14:31:33.439Z,3.77
2018-05-23T14:34:00.961Z,4.30
2018-05-23T14:36:28.456Z,4.03
2018-05-23T14:38:55.955Z,4.70
2018-05-23T14:41:23.440Z,4.10
2018-05-23T14:43:51.029Z,7.70
2018-05-23T14:46:19.180Z,4.20
2018-05-23T14:48:46.681Z,5.73
2018-05-23T14:51:14.916Z,4.63
2018-05-23T14:53:42.412Z,4.23
2018-05-23T14:56:10.751Z,5.10
2018-05-23T14:58:38.933Z,5.30
2018-05-23T15:01:06.428Z,6.03
2018-05-23T15:03:34.704Z,4.60
2018-05-23T15:06:02.956Z,5.30
2018-05-23T15:08:30.498Z,6.17
2018-05-23T15:10:57.966Z,5.20
2018-05-23T15:13:25.439Z,7.47
2018-05-23T15:15:52.934Z,4.93
2018-05-23T15:18:20.415Z,4.63
2018-05-23T15:20:47.897Z,5.70
2018-05-23T15:23:15.417Z,6.53
2018-05-23T15:25:42.909Z,74.87
2018-05-23T15:28:10.394Z,37.77
2018-05-23T15:30:37.888Z,8.57
2018-05-23T15:33:06.236Z,6.93
2018-05-23T15:35:34.496Z,7.33
2018-05-23T15:38:01.969Z,6.77
2018-05-23T15:40:29.479Z,6.17
2018-05-23T15:42:56.978Z,6.97
2018-05-23T15:45:24.492Z,5.97
2018-05-23T15:47:52.244Z,5.50
2018-05-23T15:50:19.725Z,8.63
2018-05-23T15:52:47.231Z,5.97
2018-05-23T15:55:15.480Z,7.10
2018-05-23T15:57:42.995Z,5.90
2018-05-23T16:00:10.468Z,5.70
2018-05-23T16:02:37.984Z,5.53
2018-05-23T16:05:05.482Z,6.17
2018-05-23T16:07:32.982Z,5.23
2018-05-23T16:10:00.482Z,5.97
2018-05-23T16:12:27.980Z,6.17
2018-05-23T16:14:55.508Z,6.13
2018-05-23T16:17:22.940Z,6.07
2018-05-23T16:19:51.196Z,6.50
2018-05-23T16:22:18.668Z,6.40
2018-05-23T16:24:46.229Z,7.80
2018-05-23T16:27:13.698Z,6.50
2018-05-23T16:29:41.968Z,6.20
2018-05-23T16:32:09.459Z,8.27
2018-05-23T16:34:36.950Z,7.00
2018-05-23T16:37:04.455Z,7.10
2018-05-23T16:39:32.686Z,7.53
2018-05-23T16:42:00.186Z,6.67
2018-05-23T16:44:28.487Z,7.43
2018-05-23T16:46:55.944Z,8.80
2018-05-23T16:49:23.463Z,6.13
2018-05-23T16:51:50.968Z,7.63
2018-05-23T16:54:18.449Z,7.07
2018-05-23T16:56:45.950Z,6.93
2018-05-23T16:59:14.203Z,6.93
2018-05-23T17:01:41.684Z,8.17
2018-05-23T17:04:09.195Z,7.30
2018-05-23T17:06:36.671Z,6.93
2018-05-23T17:09:04.187Z,7.77
2018-05-23T17:11:31.669Z,6.27
2018-05-23T17:13:59.173Z,5.97
2018-05-23T17:16:26.644Z,7.63
2018-05-23T17:18:54.931Z,6.87
2018-05-23T17:21:23.179Z,6.63
2018-05-23T17:23:50.700Z,7.30
2018-05-23T17:26:18.176Z,6.80
2018-05-23T17:28:45.676Z,6.83
2018-05-23T17:31:13.919Z,7.70
2018-05-23T17:33:41.432Z,7.57
2018-05-23T17:36:08.915Z,7.67
2018-05-23T17:38:36.463Z,7.10
2018-05-23T17:41:04.685Z,7.73
2018-05-23T17:43:32.184Z,6.87
2018-05-23T17:45:59.692Z,7.20
2018-05-23T17:48:27.193Z,7.00
2018-05-23T17:50:55.474Z,12.43
2018-05-23T17:53:22.962Z,6.20
2018-05-23T17:55:50.470Z,9.07
2018-05-23T17:58:17.975Z,7.40
2018-05-23T18:00:45.496Z,6.43
2018-05-23T18:03:12.975Z,7.17
2018-05-23T18:05:40.483Z,7.80
2018-05-23T18:08:07.953Z,7.13
2018-05-23T18:10:35.467Z,8.20
2018-05-23T18:13:02.937Z,8.43
2018-05-23T18:15:30.431Z,9.07
2018-05-23T18:17:58.671Z,7.27
2018-05-23T18:20:26.234Z,8.67
2018-05-23T18:22:53.685Z,7.60
2018-05-23T18:25:21.188Z,8.67
2018-05-23T18:27:48.678Z,9.40
2018-05-23T18:30:17.036Z,8.60
2018-05-23T18:32:45.292Z,10.27
2018-05-23T18:35:12.794Z,8.50
2018-05-23T18:37:40.297Z,8.77
2018-05-23T18:40:07.790Z,12.10
2018-05-23T18:42:35.303Z,8.53
2018-05-23T18:45:02.803Z,10.70
2018-05-23T18:47:30.334Z,12.47
2018-05-23T18:49:57.832Z,10.67
2018-05-23T18:52:26.109Z,13.23
2018-05-23T18:54:54.355Z,14.73
2018-05-23T18:57:21.910Z,16.77
2018-05-23T18:59:49.364Z,29.90
2018-05-23T19:02:16.897Z,19.63
2018-05-23T19:04:44.402Z,24.43
2018-05-23T19:07:11.919Z,19.47
2018-05-23T19:09:39.439Z,24.93
2018-05-23T19:12:07.711Z,26.83
2018-05-23T19:14:36.008Z,28.10
2018-05-23T19:17:03.517Z,27.80
2018-05-23T19:19:31.119Z,23.33
2018-05-23T19:21:58.535Z,27.73
2018-05-23T19:24:26.047Z,30.17
2018-05-23T19:26:53.570Z,25.40
2018-05-23T19:29:22.901Z,20.63
2018-05-23T19:31:51.179Z,21.70
2018-05-23T19:34:19.486Z,25.53
2018-05-23T19:36:47.048Z,27.30
2018-05-23T19:39:14.597Z,25.03
2018-05-23T19:41:42.080Z,30.37
2018-05-23T19:44:09.573Z,23.97
2018-05-23T19:46:37.085Z,24.73
2018-05-23T19:49:04.697Z,18.93
2018-05-23T19:51:32.201Z,22.47
2018-05-23T19:53:59.706Z,21.13
2018-05-23T19:56:27.290Z,19.70
2018-05-23T19:58:54.715Z,20.63
2018-05-23T20:01:22.234Z,19.50
2018-05-23T20:03:49.728Z,19.97
2018-05-23T20:06:17.250Z,30.17
2018-05-23T20:08:44.732Z,28.63
2018-05-23T20:11:12.251Z,23.47
2018-05-23T20:13:39.768Z,26.17
2018-05-23T20:16:07.276Z,21.03
2018-05-23T20:18:34.793Z,20.23
2018-05-23T20:21:02.284Z,17.73
2018-05-23T20:23:29.812Z,17.30
2018-05-23T20:25:57.301Z,18.67
2018-05-23T20:28:25.597Z,17.17
2018-05-23T20:30:53.090Z,14.57
2018-05-23T20:33:20.602Z,16.27
2018-05-23T20:35:48.088Z,18.00
2018-05-23T20:38:16.217Z,16.87
2018-05-23T20:40:43.709Z,15.70
2018-05-23T20:43:11.278Z,17.20
2018-05-23T20:45:38.793Z,17.80
2018-05-23T20:48:07.064Z,16.60
2018-05-23T20:50:34.589Z,16.90
2018-05-23T20:53:02.115Z,17.90
2018-05-23T20:55:29.611Z,16.07
2018-05-23T20:57:57.100Z,19.30
2018-05-23T21:00:24.608Z,18.53
2018-05-23T21:02:52.106Z,22.20
2018-05-23T21:05:19.668Z,25.50
2018-05-23T21:07:47.120Z,25.33
2018-05-23T21:10:14.646Z,27.50
2018-05-23T21:12:42.158Z,24.17
2018-05-23T21:15:10.434Z,22.33
2018-05-23T21:17:38.731Z,25.13
2018-05-23T21:20:07.012Z,26.00
2018-05-23T21:22:34.495Z,22.77
2018-05-23T21:25:01.980Z,24.87
2018-05-23T21:27:29.478Z,20.77
2018-05-23T21:29:57.732Z,22.90
2018-05-23T21:32:25.237Z,20.80
2018-05-23T21:34:52.730Z,25.97
2018-05-23T21:37:20.228Z,25.07
2018-05-23T21:39:48.477Z,28.70
2018-05-23T21:42:15.989Z,22.97
2018-05-23T21:44:43.471Z,26.30
2018-05-23T21:47:11.002Z,23.30
2018-05-23T21:49:38.491Z,24.40
2018-05-23T21:52:06.004Z,25.20
2018-05-23T21:54:34.271Z,27.10
2018-05-23T21:57:02.548Z,27.50
2018-05-23T21:59:30.820Z,29.27
2018-05-23T22:01:58.331Z,33.60
2018-05-23T22:04:25.852Z,29.60
2018-05-23T22:06:54.091Z,30.40
2018-05-23T22:09:21.608Z,33.13
2018-05-23T22:11:49.117Z,27.33
2018-05-23T22:14:16.618Z,23.70
2018-05-23T22:16:44.132Z,25.53
2018-05-23T22:19:11.659Z,29.40
2018-05-23T22:21:39.168Z,32.83
2018-05-23T22:24:06.671Z,34.43
2018-05-23T22:26:34.260Z,33.97
2018-05-23T22:29:02.518Z,30.77
2018-05-23T22:31:30.012Z,30.40
2018-05-23T22:33:57.499Z,31.50
2018-05-23T22:36:25.803Z,29.10
2018-05-23T22:38:53.294Z,33.00
2018-05-23T22:41:20.793Z,32.87
2018-05-23T22:43:49.038Z,29.30
2018-05-23T22:46:16.559Z,29.17
2018-05-23T22:48:44.044Z,28.23
2018-05-23T22:51:11.553Z,35.30
2018-05-23T22:53:39.802Z,50.60
2018-05-23T22:56:07.306Z,52.80
2018-05-23T22:58:34.790Z,45.77
2018-05-23T23:01:02.304Z,36.80
2018-05-23T23:03:30.550Z,37.23
2018-05-23T23:05:58.064Z,38.90
2018-05-23T23:08:25.563Z,65.53
2018-05-23T23:10:53.093Z,40.50
2018-05-23T23:13:20.575Z,37.60
2018-05-23T23:15:48.066Z,43.70
2018-05-23T23:18:16.779Z,40.60
2018-05-23T23:20:44.276Z,34.00
2018-05-23T23:23:11.797Z,39.20
2018-05-23T23:25:39.370Z,40.65
2018-05-23T23:28:09.801Z,36.97
2018-05-23T23:30:37.295Z,40.47
2018-05-23T23:33:04.798Z,37.47
2018-05-23T23:35:32.295Z,40.97
2018-05-23T23:37:59.801Z,37.43
2018-05-23T23:40:28.044Z,39.57
2018-05-23T23:42:55.567Z,37.20
2018-05-23T23:45:23.080Z,34.90
2018-05-23T23:47:50.582Z,37.63
2018-05-23T23:50:18.072Z,41.60
2018-05-23T23:52:45.572Z,44.00
2018-05-23T23:55:13.846Z,41.70
2018-05-23T23:57:42.096Z,42.17
